createdAt,value
2024-03-08T00:01:02.315Z,82.75
2024-03-08T00:02:05.250Z,82.57
2024-03-08T00:03:07.999Z,82.42
2024-03-08T00:04:10.615Z,82.35
2024-03-08T00:05:14.252Z,82.11
2024-03-08T00:06:17.120Z,81.41
2024-03-08T00:07:19.778Z,81.47
2024-03-08T00:08:22.443Z,81.16
2024-03-08T00:09:25.073Z,81.72
2024-03-08T00:10:29.970Z,81.54
2024-03-08T00:11:32.818Z,81.58
2024-03-08T00:12:35.457Z,81.96
2024-03-08T00:13:38.108Z,82.27
2024-03-08T00:14:40.854Z,82.34
2024-03-08T00:15:43.512Z,82.28
2024-03-08T00:16:46.127Z,82.14
2024-03-08T00:17:49.301Z,82.42
2024-03-08T00:18:52.321Z,82.76
2024-03-08T00:19:55.146Z,82.53
2024-03-08T00:20:57.838Z,82.72
2024-03-08T00:22:00.472Z,83.14
2024-03-08T00:23:03.093Z,83.48
2024-03-08T00:24:05.924Z,82.71
2024-03-08T00:25:11.659Z,83.13
2024-03-08T00:26:14.297Z,83.04
2024-03-08T00:27:17.259Z,83.03
2024-03-08T00:28:20.191Z,82.54
2024-03-08T00:29:23.525Z,82.02
2024-03-08T00:30:28.925Z,82.56
2024-03-08T00:31:32.184Z,83.05
2024-03-08T00:32:34.963Z,83.23
2024-03-08T00:33:38.249Z,83.13
2024-03-08T00:34:40.970Z,82.74
2024-03-08T00:35:43.617Z,82.69
2024-03-08T00:36:46.305Z,82.51
2024-03-08T00:37:48.942Z,82.62
2024-03-08T00:38:51.576Z,82.36
2024-03-08T00:39:54.363Z,82.78
2024-03-08T00:40:58.001Z,83.00
2024-03-08T00:42:00.648Z,82.34
2024-03-08T00:43:04.972Z,81.51
2024-03-08T00:44:07.580Z,80.86
2024-03-08T00:45:11.857Z,81.01
2024-03-08T00:46:16.330Z,81.19
2024-03-08T00:47:19.107Z,81.15
2024-03-08T00:48:21.885Z,80.92
2024-03-08T00:49:24.620Z,81.21
2024-03-08T00:50:27.299Z,80.74
2024-03-08T00:51:30.273Z,80.93
2024-03-08T00:52:32.985Z,80.93
2024-03-08T00:53:35.620Z,81.18
2024-03-08T00:54:38.285Z,80.95
2024-03-08T00:55:40.922Z,80.53
2024-03-08T00:56:43.733Z,80.83
2024-03-08T00:57:46.342Z,81.25
2024-03-08T00:58:48.960Z,81.44
2024-03-08T00:59:51.716Z,81.12
2024-03-08T01:00:54.400Z,81.45
2024-03-08T01:01:57.812Z,81.27
2024-03-08T01:03:01.327Z,81.53
2024-03-08T01:04:03.970Z,81.76
2024-03-08T01:05:08.712Z,81.63
2024-03-08T01:06:12.814Z,82.09
2024-03-08T01:07:15.463Z,82.03
2024-03-08T01:08:18.358Z,81.95
2024-03-08T01:09:22.925Z,82.23
2024-03-08T01:10:25.519Z,81.96
2024-03-08T01:11:29.382Z,81.77
2024-03-08T01:12:32.033Z,81.81
2024-03-08T01:13:34.599Z,81.94
2024-03-08T01:14:37.230Z,81.91
2024-03-08T01:15:42.754Z,82.27
2024-03-08T01:16:45.499Z,82.04
2024-03-08T01:17:48.197Z,81.63
2024-03-08T01:18:51.583Z,81.86
2024-03-08T01:19:54.642Z,82.11
2024-03-08T01:20:57.460Z,82.24
2024-03-08T01:22:00.052Z,81.68
2024-03-08T01:23:02.626Z,81.77
2024-03-08T01:24:06.032Z,82.43
2024-03-08T01:25:09.827Z,81.56
2024-03-08T01:26:12.732Z,81.79
2024-03-08T01:27:15.948Z,81.81
2024-03-08T01:28:18.525Z,81.67
2024-03-08T01:29:21.113Z,81.16
2024-03-08T01:30:24.502Z,81.55
2024-03-08T01:31:27.152Z,81.67
2024-03-08T01:32:29.867Z,82.00
2024-03-08T01:33:32.757Z,82.53
2024-03-08T01:34:35.514Z,82.18
2024-03-08T01:35:38.167Z,81.69
2024-03-08T01:36:40.928Z,81.50
2024-03-08T01:37:43.557Z,81.07
2024-03-08T01:38:46.281Z,81.36
2024-03-08T01:39:48.922Z,81.72
2024-03-08T01:40:52.485Z,81.49
2024-03-08T01:41:55.617Z,81.73
2024-03-08T01:42:58.309Z,80.85
2024-03-08T01:44:00.880Z,80.92
2024-03-08T01:45:04.369Z,80.97
2024-03-08T01:46:08.080Z,81.38
2024-03-08T01:47:12.300Z,81.74
2024-03-08T01:48:16.668Z,81.31
2024-03-08T01:49:21.675Z,81.25
2024-03-08T01:50:24.349Z,81.25
2024-03-08T01:51:26.936Z,81.26
2024-03-08T01:52:32.508Z,81.29
2024-03-08T01:53:36.324Z,81.24
2024-03-08T01:54:39.062Z,80.62
2024-03-08T01:55:41.747Z,80.70
2024-03-08T01:56:44.616Z,80.65
2024-03-08T01:57:47.296Z,80.34
2024-03-08T01:58:50.520Z,80.63
2024-03-08T01:59:55.794Z,80.50
2024-03-08T02:01:01.778Z,80.58
2024-03-08T02:02:07.156Z,80.51
2024-03-08T02:03:09.824Z,80.78
2024-03-08T02:04:12.530Z,80.89
2024-03-08T02:05:16.070Z,80.95
2024-03-08T02:06:19.004Z,81.20
2024-03-08T02:07:23.206Z,81.55
2024-03-08T02:08:26.090Z,81.64
2024-03-08T02:09:29.143Z,81.62
2024-03-08T02:10:31.756Z,81.72
2024-03-08T02:11:37.317Z,81.47
2024-03-08T02:12:40.680Z,81.80
2024-03-08T02:13:43.326Z,81.31
2024-03-08T02:14:46.187Z,81.53
2024-03-08T02:16:02.820Z,81.80
2024-03-08T02:17:06.087Z,82.31
2024-03-08T02:18:08.781Z,82.27
2024-03-08T02:19:11.421Z,81.78
2024-03-08T02:20:14.865Z,82.05
2024-03-08T02:21:22.306Z,82.09
2024-03-08T02:22:24.918Z,82.22
2024-03-08T02:23:28.207Z,81.90
2024-03-08T02:24:31.596Z,82.26
2024-03-08T02:25:34.237Z,82.25
2024-03-08T02:26:36.975Z,82.49
2024-03-08T02:27:39.598Z,81.90
2024-03-08T02:28:44.359Z,81.46
2024-03-08T02:29:47.478Z,82.03
2024-03-08T02:30:58.325Z,82.33
2024-03-08T02:32:01.556Z,82.07
2024-03-08T02:33:05.136Z,81.55
2024-03-08T02:34:07.854Z,82.01
2024-03-08T02:35:11.352Z,82.34
2024-03-08T02:36:14.109Z,82.25
2024-03-08T02:37:19.383Z,81.82
2024-03-08T02:38:23.726Z,82.01
2024-03-08T02:39:26.987Z,81.93
2024-03-08T02:40:29.578Z,81.97
2024-03-08T02:41:32.222Z,81.80
2024-03-08T02:42:34.868Z,82.14
2024-03-08T02:43:37.461Z,82.08
2024-03-08T02:44:45.027Z,82.36
2024-03-08T02:45:47.906Z,82.31
2024-03-08T02:46:51.762Z,82.17
2024-03-08T02:47:54.448Z,81.69
2024-03-08T02:48:57.229Z,81.57
2024-03-08T02:49:59.936Z,81.51
2024-03-08T02:51:03.501Z,81.64
2024-03-08T02:52:06.242Z,82.19
2024-03-08T02:53:09.143Z,82.01
2024-03-08T02:54:11.859Z,81.86
2024-03-08T02:55:17.619Z,81.72
2024-03-08T02:56:20.312Z,81.97
2024-03-08T02:57:23.450Z,81.70
2024-03-08T02:58:26.007Z,81.65
2024-03-08T02:59:28.608Z,81.76
2024-03-08T03:00:32.069Z,81.86
2024-03-08T03:01:34.904Z,81.78
2024-03-08T03:02:38.544Z,81.92
2024-03-08T03:03:41.182Z,82.27
2024-03-08T03:04:44.360Z,82.11
2024-03-08T03:05:49.334Z,82.09
2024-03-08T03:06:52.324Z,82.37
2024-03-08T03:07:54.904Z,82.57
2024-03-08T03:08:58.671Z,82.69
2024-03-08T03:10:01.945Z,82.31
2024-03-08T03:11:04.719Z,82.53
2024-03-08T03:12:10.157Z,82.73
2024-03-08T03:13:13.500Z,83.05
2024-03-08T03:14:17.268Z,82.85
2024-03-08T03:15:20.105Z,82.63
2024-03-08T03:16:22.708Z,82.47
2024-03-08T03:17:25.834Z,82.69
2024-03-08T03:18:28.783Z,82.50
2024-03-08T03:19:31.742Z,82.62
2024-03-08T03:20:34.692Z,82.69
2024-03-08T03:21:37.422Z,82.83
2024-03-08T03:22:40.213Z,82.86
2024-03-08T03:23:45.623Z,83.20
2024-03-08T03:24:48.326Z,83.20
2024-03-08T03:25:50.896Z,82.66
2024-03-08T03:26:53.527Z,82.68
2024-03-08T03:27:59.189Z,82.70
2024-03-08T03:29:03.787Z,82.97
2024-03-08T03:30:22.614Z,83.13
2024-03-08T03:31:26.768Z,83.23
2024-03-08T03:32:29.853Z,82.95
2024-03-08T03:33:35.601Z,83.07
2024-03-08T03:34:38.321Z,83.24
2024-03-08T03:35:42.736Z,83.52
2024-03-08T03:36:48.268Z,83.15
2024-03-08T03:38:06.997Z,83.00
2024-03-08T03:39:17.954Z,83.24
2024-03-08T03:40:20.711Z,83.54
2024-03-08T03:41:23.269Z,83.26
2024-03-08T03:42:27.786Z,83.05
2024-03-08T03:43:30.356Z,83.15
2024-03-08T03:44:33.879Z,82.83
2024-03-08T03:45:37.838Z,83.15
2024-03-08T03:46:45.409Z,83.00
2024-03-08T03:47:48.074Z,82.80
2024-03-08T03:48:50.797Z,82.96
2024-03-08T03:49:54.791Z,82.99
2024-03-08T03:50:57.430Z,83.03
2024-03-08T03:52:00.100Z,83.18
2024-03-08T03:53:04.107Z,83.18
2024-03-08T03:54:06.850Z,83.55
2024-03-08T03:55:10.098Z,83.62
2024-03-08T03:56:12.710Z,83.39
2024-03-08T03:57:15.319Z,83.03
2024-03-08T03:58:23.391Z,82.84
2024-03-08T03:59:25.951Z,82.83
2024-03-08T04:00:28.863Z,82.78
2024-03-08T04:01:31.504Z,83.10
2024-03-08T04:02:34.163Z,82.53
2024-03-08T04:03:37.915Z,82.54
2024-03-08T04:04:40.585Z,83.03
2024-03-08T04:05:43.205Z,83.33
2024-03-08T04:06:46.181Z,83.47
2024-03-08T04:07:48.771Z,83.74
2024-03-08T04:08:51.372Z,83.57
2024-03-08T04:09:53.984Z,83.56
2024-03-08T04:10:56.576Z,83.88
2024-03-08T04:11:59.260Z,84.46
2024-03-08T04:13:01.880Z,84.42
2024-03-08T04:14:04.987Z,84.34
2024-03-08T04:15:08.584Z,84.21
2024-03-08T04:16:12.550Z,83.56
2024-03-08T04:17:15.115Z,83.55
2024-03-08T04:18:17.752Z,83.47
2024-03-08T04:19:20.418Z,83.43
2024-03-08T04:20:23.202Z,83.55
2024-03-08T04:21:25.821Z,83.50
2024-03-08T04:22:29.856Z,83.64
2024-03-08T04:23:32.676Z,83.43
2024-03-08T04:24:35.400Z,83.63
2024-03-08T04:25:38.116Z,84.14
2024-03-08T04:26:40.702Z,84.08
2024-03-08T04:27:43.582Z,83.82
2024-03-08T04:28:46.208Z,83.95
2024-03-08T04:29:48.820Z,84.09
2024-03-08T04:30:51.970Z,84.52
2024-03-08T04:31:57.645Z,84.32
2024-03-08T04:33:01.164Z,84.25
2024-03-08T04:34:06.354Z,84.18
2024-03-08T04:35:09.304Z,84.43
2024-03-08T04:36:14.945Z,84.18
2024-03-08T04:37:22.332Z,83.78
2024-03-08T04:38:26.030Z,83.62
2024-03-08T04:39:29.659Z,83.28
2024-03-08T04:40:32.549Z,84.08
2024-03-08T04:41:35.420Z,83.59
2024-03-08T04:42:38.929Z,83.68
2024-03-08T04:43:41.686Z,83.66
2024-03-08T04:44:44.360Z,83.68
2024-03-08T04:45:47.070Z,84.08
2024-03-08T04:46:50.347Z,83.36
2024-03-08T04:47:53.897Z,83.69
2024-03-08T04:48:56.708Z,84.17
2024-03-08T04:49:59.581Z,83.98
2024-03-08T04:51:02.404Z,83.98
2024-03-08T04:52:05.563Z,83.54
2024-03-08T04:53:09.530Z,83.32
2024-03-08T04:54:12.328Z,83.47
2024-03-08T04:55:14.915Z,83.48
2024-03-08T04:56:17.490Z,83.38
2024-03-08T04:57:20.574Z,83.51
2024-03-08T04:58:23.313Z,83.63
2024-03-08T04:59:25.889Z,83.62
2024-03-08T05:00:28.478Z,83.65
2024-03-08T05:01:31.078Z,83.39
2024-03-08T05:02:33.745Z,83.31
2024-03-08T05:03:36.472Z,83.35
2024-03-08T05:04:39.114Z,83.32
2024-03-08T05:05:41.732Z,83.08
2024-03-08T05:06:44.314Z,83.25
2024-03-08T05:07:47.373Z,83.44
2024-03-08T05:08:49.953Z,83.47
2024-03-08T05:09:53.406Z,83.11
2024-03-08T05:10:56.125Z,83.51
2024-03-08T05:12:00.960Z,83.38
2024-03-08T05:13:03.655Z,83.33
2024-03-08T05:14:06.224Z,83.49
2024-03-08T05:15:09.225Z,83.32
2024-03-08T05:16:11.856Z,83.58
2024-03-08T05:17:14.428Z,83.46
2024-03-08T05:18:17.237Z,83.81
2024-03-08T05:19:21.560Z,83.72
2024-03-08T05:20:24.143Z,83.85
2024-03-08T05:21:26.737Z,84.00
2024-03-08T05:22:29.305Z,83.84
2024-03-08T05:23:32.130Z,83.36
2024-03-08T05:24:34.748Z,83.09
2024-03-08T05:25:37.408Z,83.15
2024-03-08T05:26:40.018Z,83.34
2024-03-08T05:27:42.644Z,83.72
2024-03-08T05:28:45.405Z,83.68
2024-03-08T05:29:47.993Z,83.49
2024-03-08T05:30:50.675Z,83.58
2024-03-08T05:31:54.128Z,83.94
2024-03-08T05:32:58.202Z,83.73
2024-03-08T05:34:00.914Z,83.15
2024-03-08T05:35:08.392Z,83.28
2024-03-08T05:36:12.895Z,83.28
2024-03-08T05:37:15.540Z,83.44
2024-03-08T05:38:18.127Z,83.14
2024-03-08T05:39:24.822Z,83.06
2024-03-08T05:40:27.524Z,83.46
2024-03-08T05:41:30.218Z,83.68
2024-03-08T05:42:32.824Z,83.53
2024-03-08T05:43:35.418Z,83.83
2024-03-08T05:44:38.053Z,84.06
2024-03-08T05:45:40.688Z,84.15
2024-03-08T05:46:44.094Z,84.38
2024-03-08T05:47:47.308Z,84.16
2024-03-08T05:48:50.193Z,83.87
2024-03-08T05:49:54.576Z,83.89
2024-03-08T05:50:58.239Z,83.40
2024-03-08T05:52:01.497Z,83.21
2024-03-08T05:53:04.123Z,83.40
2024-03-08T05:54:10.169Z,83.06
2024-03-08T05:55:15.436Z,83.51
2024-03-08T05:56:18.069Z,83.67
2024-03-08T05:57:20.745Z,83.16
2024-03-08T05:58:23.412Z,82.91
2024-03-08T05:59:26.015Z,83.28
2024-03-08T06:00:28.754Z,82.65
2024-03-08T06:01:32.187Z,83.13
2024-03-08T06:02:34.913Z,83.18
2024-03-08T06:03:37.562Z,83.31
2024-03-08T06:04:40.132Z,83.00
2024-03-08T06:05:43.286Z,83.00
2024-03-08T06:06:47.157Z,83.39
2024-03-08T06:07:54.436Z,84.00
2024-03-08T06:09:00.291Z,83.87
2024-03-08T06:10:02.983Z,83.48
2024-03-08T06:11:07.134Z,83.41
2024-03-08T06:12:30.342Z,83.71
2024-03-08T06:13:35.118Z,83.91
2024-03-08T06:14:37.736Z,84.17
2024-03-08T06:16:05.796Z,84.26
2024-03-08T06:17:08.502Z,84.06
2024-03-08T06:18:13.047Z,84.32
2024-03-08T06:19:15.728Z,84.59
2024-03-08T06:20:18.315Z,84.39
2024-03-08T06:21:20.980Z,84.59
2024-03-08T06:22:23.598Z,84.79
2024-03-08T06:23:26.188Z,84.70
2024-03-08T06:24:28.835Z,84.88
2024-03-08T06:25:31.413Z,85.02
2024-03-08T06:26:35.787Z,85.14
2024-03-08T06:27:39.752Z,85.00
2024-03-08T06:28:42.328Z,85.17
2024-03-08T06:29:45.390Z,84.88
2024-03-08T06:30:47.961Z,84.80
2024-03-08T06:31:52.782Z,84.73
2024-03-08T06:32:56.928Z,84.97
2024-03-08T06:33:59.713Z,84.80
2024-03-08T06:35:07.454Z,85.48
2024-03-08T06:36:10.982Z,85.50
2024-03-08T06:37:13.632Z,85.59
2024-03-08T06:38:18.272Z,85.50
2024-03-08T06:39:20.897Z,85.33
2024-03-08T06:40:24.268Z,84.99
2024-03-08T06:41:27.717Z,84.99
2024-03-08T06:42:33.470Z,84.78
2024-03-08T06:43:36.166Z,84.79
2024-03-08T06:44:39.502Z,84.48
2024-03-08T06:45:42.199Z,84.18
2024-03-08T06:46:44.779Z,85.07
2024-03-08T06:47:47.629Z,84.93
2024-03-08T06:48:53.429Z,84.71
2024-03-08T06:49:56.312Z,85.09
2024-03-08T06:50:59.019Z,84.94
2024-03-08T06:52:01.625Z,84.76
2024-03-08T06:53:04.485Z,85.16
2024-03-08T06:54:10.187Z,84.86
2024-03-08T06:55:13.438Z,84.79
2024-03-08T06:56:16.604Z,84.89
2024-03-08T06:57:23.103Z,84.85
2024-03-08T06:58:26.072Z,84.73
2024-03-08T06:59:28.678Z,84.12
2024-03-08T07:00:31.648Z,84.29
2024-03-08T07:01:36.050Z,84.29
2024-03-08T07:02:40.930Z,84.86
2024-03-08T07:03:46.453Z,84.58
2024-03-08T07:04:51.077Z,84.84
2024-03-08T07:05:54.230Z,84.52
2024-03-08T07:07:00.034Z,83.92
2024-03-08T07:08:02.685Z,83.89
2024-03-08T07:09:05.563Z,83.99
2024-03-08T07:10:12.446Z,84.40
2024-03-08T07:11:17.228Z,84.43
2024-03-08T07:12:22.112Z,84.38
2024-03-08T07:13:24.757Z,84.05
2024-03-08T07:14:27.374Z,83.27
2024-03-08T07:15:30.212Z,83.00
2024-03-08T07:16:32.918Z,82.93
2024-03-08T07:17:36.517Z,82.53
2024-03-08T07:18:44.868Z,82.66
2024-03-08T07:19:47.775Z,82.33
2024-03-08T07:20:53.187Z,82.69
2024-03-08T07:21:56.537Z,83.03
2024-03-08T07:22:59.128Z,82.95
2024-03-08T07:24:01.854Z,83.13
2024-03-08T07:25:07.731Z,82.98
2024-03-08T07:26:11.048Z,82.38
2024-03-08T07:27:13.837Z,82.43
2024-03-08T07:28:16.630Z,82.31
2024-03-08T07:29:19.321Z,82.67
2024-03-08T07:30:44.891Z,82.33
2024-03-08T07:32:06.170Z,81.27
2024-03-08T07:33:08.975Z,81.72
2024-03-08T07:34:11.776Z,81.89
2024-03-08T07:35:14.515Z,81.78
2024-03-08T07:36:20.848Z,81.38
2024-03-08T07:37:24.678Z,81.28
2024-03-08T07:38:27.302Z,81.44
2024-03-08T07:39:29.953Z,81.57
2024-03-08T07:40:36.346Z,80.98
2024-03-08T07:41:41.358Z,81.11
2024-03-08T07:42:44.033Z,80.28
2024-03-08T07:43:46.629Z,80.01
2024-03-08T07:44:49.885Z,80.12
2024-03-08T07:45:54.240Z,80.44
2024-03-08T07:46:58.334Z,80.33
2024-03-08T07:48:01.299Z,79.84
2024-03-08T07:49:04.731Z,79.89
2024-03-08T07:50:09.535Z,80.17
2024-03-08T07:51:13.489Z,80.37
2024-03-08T07:52:19.156Z,80.65
2024-03-08T07:53:21.750Z,80.79
2024-03-08T07:54:24.429Z,80.78
2024-03-08T07:55:27.857Z,80.34
2024-03-08T07:56:30.440Z,80.12
2024-03-08T07:57:33.390Z,80.28
2024-03-08T07:58:36.196Z,80.17
2024-03-08T07:59:38.826Z,79.65
2024-03-08T08:00:44.351Z,79.56
2024-03-08T08:01:48.422Z,79.70
2024-03-08T08:02:51.236Z,80.08
2024-03-08T08:03:53.820Z,79.95
2024-03-08T08:04:56.642Z,79.16
2024-03-08T08:05:59.291Z,79.37
2024-03-08T08:07:02.747Z,79.70
2024-03-08T08:08:07.785Z,79.97
2024-03-08T08:09:16.823Z,80.00
2024-03-08T08:10:26.804Z,79.75
2024-03-08T08:11:32.220Z,79.82
2024-03-08T08:12:35.251Z,80.53
2024-03-08T08:13:38.219Z,80.44
2024-03-08T08:14:40.885Z,79.96
2024-03-08T08:15:43.963Z,79.74
2024-03-08T08:16:46.982Z,78.76
2024-03-08T08:17:49.683Z,78.86
2024-03-08T08:18:52.524Z,79.71
2024-03-08T08:19:55.156Z,80.34
2024-03-08T08:20:57.792Z,80.07
2024-03-08T08:22:00.437Z,80.11
2024-03-08T08:23:03.074Z,79.73
2024-03-08T08:24:05.916Z,79.41
2024-03-08T08:25:08.813Z,79.29
2024-03-08T08:26:12.520Z,78.98
2024-03-08T08:27:15.770Z,78.45
2024-03-08T08:28:18.838Z,78.85
2024-03-08T08:29:24.477Z,78.44
2024-03-08T08:30:27.107Z,78.73
2024-03-08T08:31:30.144Z,78.69
2024-03-08T08:32:34.035Z,78.87
2024-03-08T08:33:37.834Z,78.93
2024-03-08T08:34:40.462Z,78.97
2024-03-08T08:35:43.771Z,78.85
2024-03-08T08:36:46.712Z,78.52
2024-03-08T08:37:49.344Z,78.48
2024-03-08T08:38:51.960Z,78.44
2024-03-08T08:39:54.556Z,78.38
2024-03-08T08:40:57.338Z,77.96
2024-03-08T08:42:00.048Z,77.59
2024-03-08T08:43:05.727Z,77.40
2024-03-08T08:45:22.175Z,76.89
2024-03-08T08:46:27.389Z,76.94
2024-03-08T08:47:33.146Z,77.08
2024-03-08T08:48:36.348Z,76.99
2024-03-08T08:49:39.054Z,76.01
2024-03-08T08:50:42.680Z,75.72
2024-03-08T08:51:50.915Z,75.33
2024-03-08T08:52:54.876Z,74.72
2024-03-08T08:53:57.623Z,75.05
2024-03-08T08:55:00.225Z,75.64
2024-03-08T08:56:03.049Z,76.06
2024-03-08T08:57:09.050Z,76.55
2024-03-08T08:58:12.500Z,76.95
2024-03-08T08:59:15.251Z,77.03
2024-03-08T09:00:18.238Z,76.83
2024-03-08T09:01:21.600Z,75.73
2024-03-08T09:02:24.304Z,75.59
2024-03-08T09:03:29.269Z,75.95
2024-03-08T09:04:32.328Z,75.90
2024-03-08T09:05:37.332Z,75.97
2024-03-08T09:06:42.598Z,76.78
2024-03-08T09:07:48.438Z,77.83
2024-03-08T09:08:51.106Z,77.35
2024-03-08T09:09:58.080Z,78.51
2024-03-08T09:11:01.069Z,75.86
2024-03-08T09:12:04.155Z,74.38
2024-03-08T09:13:07.916Z,74.03
2024-03-08T09:14:13.430Z,74.24
2024-03-08T09:15:19.061Z,72.93
2024-03-08T09:16:21.745Z,72.55
2024-03-08T09:17:24.361Z,72.81
2024-03-08T09:18:27.324Z,72.12
2024-03-08T09:19:29.913Z,72.28
2024-03-08T09:20:33.136Z,71.90
2024-03-08T09:21:38.742Z,71.59
2024-03-08T09:22:45.359Z,71.36
2024-03-08T09:23:48.069Z,72.04
2024-03-08T09:24:50.824Z,72.57
2024-03-08T09:25:53.412Z,72.03
2024-03-08T09:26:56.443Z,71.80
2024-03-08T09:27:59.814Z,71.16
2024-03-08T09:29:02.432Z,71.11
2024-03-08T09:30:05.786Z,71.30
2024-03-08T09:31:08.385Z,71.39
2024-03-08T09:32:12.960Z,71.36
2024-03-08T09:33:20.387Z,71.90
2024-03-08T09:34:25.824Z,72.17
2024-03-08T09:35:31.947Z,71.81
2024-03-08T09:36:34.603Z,72.20
2024-03-08T09:37:37.437Z,72.14
2024-03-08T09:38:41.827Z,71.13
2024-03-08T09:39:45.837Z,71.08
2024-03-08T09:40:49.343Z,71.64
2024-03-08T09:41:52.047Z,71.11
2024-03-08T09:42:54.762Z,70.46
2024-03-08T09:44:00.918Z,70.61
2024-03-08T09:45:03.788Z,70.05
2024-03-08T09:46:07.947Z,70.02
2024-03-08T09:47:15.029Z,69.78
2024-03-08T09:48:20.302Z,70.20
2024-03-08T09:49:23.000Z,70.62
2024-03-08T09:50:27.581Z,70.97
2024-03-08T09:51:30.497Z,71.17
2024-03-08T09:52:34.100Z,71.47
2024-03-08T09:53:37.053Z,70.69
2024-03-08T09:54:40.949Z,71.22
2024-03-08T09:55:46.294Z,70.69
2024-03-08T09:56:50.949Z,71.18
2024-03-08T09:58:13.337Z,71.08
2024-03-08T09:59:34.156Z,69.72
2024-03-08T10:00:36.789Z,68.97
2024-03-08T10:01:40.286Z,68.84
2024-03-08T10:02:43.021Z,68.88
2024-03-08T10:03:45.673Z,69.09
2024-03-08T10:04:51.439Z,68.16
2024-03-08T10:05:57.400Z,68.25
2024-03-08T10:07:00.382Z,68.75
2024-03-08T10:08:03.013Z,69.06
2024-03-08T10:09:07.353Z,69.49
2024-03-08T10:10:12.735Z,69.07
2024-03-08T10:11:15.509Z,69.36
2024-03-08T10:12:18.772Z,68.86
2024-03-08T10:13:22.337Z,69.13
2024-03-08T10:14:27.927Z,68.47
2024-03-08T10:15:30.697Z,67.71
2024-03-08T10:16:33.272Z,68.24
2024-03-08T10:17:38.832Z,67.99
2024-03-08T10:18:42.151Z,67.50
2024-03-08T10:19:52.347Z,68.20
2024-03-08T10:21:09.961Z,67.94
2024-03-08T10:22:17.018Z,67.00
2024-03-08T10:23:19.697Z,67.46
2024-03-08T10:24:22.379Z,67.68
2024-03-08T10:25:25.745Z,67.81
2024-03-08T10:26:28.464Z,67.78
2024-03-08T10:27:31.047Z,68.34
2024-03-08T10:28:33.661Z,68.66
2024-03-08T10:29:37.061Z,68.16
2024-03-08T10:30:39.717Z,68.80
2024-03-08T10:31:45.880Z,68.76
2024-03-08T10:32:49.425Z,67.60
2024-03-08T10:33:52.193Z,67.98
2024-03-08T10:34:55.039Z,67.71
2024-03-08T10:35:58.294Z,67.75
2024-03-08T10:37:05.308Z,68.18
2024-03-08T10:38:15.687Z,68.57
2024-03-08T10:39:24.944Z,68.24
2024-03-08T10:40:28.780Z,68.21
2024-03-08T10:41:34.289Z,68.33
2024-03-08T10:42:43.500Z,68.37
2024-03-08T10:44:24.241Z,68.89
2024-03-08T10:45:32.986Z,67.82
2024-03-08T10:46:38.126Z,68.11
2024-03-08T10:47:42.885Z,68.99
2024-03-08T10:48:47.319Z,69.63
2024-03-08T10:49:56.350Z,69.48
2024-03-08T10:51:00.469Z,69.60
2024-03-08T10:52:10.412Z,68.46
2024-03-08T10:53:13.164Z,68.65
2024-03-08T10:54:17.065Z,68.86
2024-03-08T10:55:21.733Z,68.61
2024-03-08T10:56:24.637Z,67.90
2024-03-08T10:57:28.365Z,67.14
2024-03-08T10:58:31.403Z,67.56
2024-03-08T10:59:35.189Z,66.99
2024-03-08T11:00:38.122Z,66.57
2024-03-08T11:01:41.556Z,66.60
2024-03-08T11:02:47.488Z,66.97
2024-03-08T11:03:52.596Z,67.01
2024-03-08T11:04:57.785Z,67.32
2024-03-08T11:06:02.092Z,67.49
2024-03-08T11:07:08.441Z,66.94
2024-03-08T11:08:20.133Z,67.67
2024-03-08T11:09:39.748Z,68.00
2024-03-08T11:10:54.060Z,68.11
2024-03-08T11:12:26.634Z,66.44
2024-03-08T11:13:39.320Z,67.00
2024-03-08T11:14:50.839Z,67.99
2024-03-08T11:15:53.533Z,68.28
2024-03-08T11:16:56.292Z,67.71
2024-03-08T11:18:00.483Z,67.69
2024-03-08T11:19:25.237Z,67.53
2024-03-08T11:20:29.230Z,67.03
2024-03-08T11:21:34.522Z,66.43
2024-03-08T11:22:42.919Z,66.43
2024-03-08T11:24:01.145Z,66.41
2024-03-08T11:25:11.230Z,67.29
2024-03-08T11:26:25.789Z,67.06
2024-03-08T11:27:32.547Z,66.25
2024-03-08T11:28:35.262Z,66.66
2024-03-08T11:29:41.512Z,66.51
2024-03-08T11:30:49.669Z,66.15
2024-03-08T11:31:52.480Z,65.37
2024-03-08T11:32:55.308Z,65.67
2024-03-08T11:33:59.011Z,66.14
2024-03-08T11:35:07.012Z,66.47
2024-03-08T11:36:18.119Z,66.05
2024-03-08T11:37:22.591Z,65.97
2024-03-08T11:38:26.158Z,65.72
2024-03-08T11:39:29.892Z,65.49
2024-03-08T11:40:34.599Z,65.70
2024-03-08T11:41:38.068Z,65.18
2024-03-08T11:42:40.952Z,65.45
2024-03-08T11:43:44.013Z,65.68
2024-03-08T11:44:52.114Z,65.84
2024-03-08T11:46:09.872Z,65.75
2024-03-08T11:47:12.990Z,66.15
2024-03-08T11:48:15.854Z,66.64
2024-03-08T11:49:18.737Z,66.74
2024-03-08T11:50:22.354Z,67.65
2024-03-08T11:51:25.228Z,66.89
2024-03-08T11:52:27.893Z,66.31
2024-03-08T11:53:30.601Z,65.87
2024-03-08T11:54:33.446Z,66.31
2024-03-08T11:55:37.143Z,66.60
2024-03-08T11:56:40.070Z,66.27
2024-03-08T11:57:43.731Z,66.19
2024-03-08T11:58:55.596Z,65.63
2024-03-08T11:59:58.356Z,66.26
2024-03-08T12:01:07.950Z,65.67
2024-03-08T12:02:12.675Z,66.07
2024-03-08T12:03:15.319Z,65.90
2024-03-08T12:04:18.429Z,65.37
2024-03-08T12:05:21.234Z,65.59
2024-03-08T12:06:23.906Z,65.30
2024-03-08T12:07:29.082Z,65.64
2024-03-08T12:08:33.386Z,65.66
2024-03-08T12:09:37.481Z,66.43
2024-03-08T12:10:40.156Z,66.84
2024-03-08T12:11:48.040Z,67.05
2024-03-08T12:12:52.809Z,67.01
2024-03-08T12:13:55.724Z,66.65
2024-03-08T12:14:59.111Z,65.61
2024-03-08T12:16:05.619Z,65.85
2024-03-08T12:17:09.910Z,66.11
2024-03-08T12:18:14.139Z,66.23
2024-03-08T12:19:17.004Z,66.38
2024-03-08T12:20:23.201Z,66.32
2024-03-08T12:21:27.603Z,66.53
2024-03-08T12:22:31.795Z,66.56
2024-03-08T12:23:38.808Z,66.64
2024-03-08T12:24:42.324Z,66.20
2024-03-08T12:25:45.244Z,66.61
2024-03-08T12:26:49.599Z,66.51
2024-03-08T12:27:53.727Z,66.83
2024-03-08T12:29:33.736Z,66.72
2024-03-08T12:30:36.421Z,67.06
2024-03-08T12:31:41.117Z,66.27
2024-03-08T12:33:00.543Z,66.63
2024-03-08T12:34:04.683Z,66.93
2024-03-08T12:35:11.451Z,67.32
2024-03-08T12:36:18.884Z,67.49
2024-03-08T12:37:21.724Z,67.84
2024-03-08T12:38:26.741Z,67.44
2024-03-08T12:39:31.790Z,67.11
2024-03-08T12:40:36.492Z,67.09
2024-03-08T12:41:42.261Z,66.96
2024-03-08T12:42:48.345Z,66.74
2024-03-08T12:43:51.035Z,67.44
2024-03-08T12:44:53.744Z,67.80
2024-03-08T12:45:56.783Z,68.14
2024-03-08T12:47:00.880Z,68.29
2024-03-08T12:48:04.681Z,68.00
2024-03-08T12:49:13.839Z,67.68
2024-03-08T12:50:18.101Z,67.45
2024-03-08T12:51:21.788Z,67.31
2024-03-08T12:52:24.445Z,67.66
2024-03-08T12:53:30.101Z,67.90
2024-03-08T12:54:32.822Z,67.13
2024-03-08T12:55:37.474Z,66.64
2024-03-08T12:56:41.010Z,66.38
2024-03-08T12:57:44.180Z,66.75
2024-03-08T12:58:47.025Z,67.56
2024-03-08T12:59:50.978Z,67.91
2024-03-08T13:00:54.383Z,68.02
2024-03-08T13:01:59.689Z,67.43
2024-03-08T13:03:02.456Z,67.58
2024-03-08T13:04:07.218Z,67.49
2024-03-08T13:05:12.106Z,67.48
2024-03-08T13:06:14.802Z,68.05
2024-03-08T13:07:18.110Z,67.93
2024-03-08T13:08:21.708Z,68.14
2024-03-08T13:09:25.070Z,68.59
2024-03-08T13:10:27.999Z,69.03
2024-03-08T13:11:30.667Z,68.56
2024-03-08T13:12:33.460Z,67.97
2024-03-08T13:13:40.714Z,68.39
2024-03-08T13:14:43.733Z,68.29
2024-03-08T13:15:46.605Z,67.95
2024-03-08T13:16:49.946Z,68.33
2024-03-08T13:17:52.921Z,68.44
2024-03-08T13:18:55.736Z,68.50
2024-03-08T13:20:11.128Z,68.53
2024-03-08T13:21:15.292Z,69.19
2024-03-08T13:22:18.618Z,69.36
2024-03-08T13:23:21.234Z,69.05
2024-03-08T13:24:23.880Z,68.69
2024-03-08T13:25:26.675Z,68.47
2024-03-08T13:26:34.055Z,68.03
2024-03-08T13:27:38.084Z,68.02
2024-03-08T13:28:41.038Z,67.64
2024-03-08T13:29:44.392Z,67.14
2024-03-08T13:30:47.000Z,67.43
2024-03-08T13:31:53.029Z,67.81
2024-03-08T13:32:56.020Z,68.55
2024-03-08T13:34:01.247Z,68.98
2024-03-08T13:35:05.795Z,68.26
2024-03-08T13:36:17.917Z,68.30
2024-03-08T13:37:21.020Z,68.17
2024-03-08T13:38:23.857Z,68.07
2024-03-08T13:39:27.137Z,67.84
2024-03-08T13:40:29.867Z,68.27
2024-03-08T13:41:34.041Z,68.69
2024-03-08T13:42:36.853Z,68.88
2024-03-08T13:43:41.194Z,68.92
2024-03-08T13:44:47.288Z,68.72
2024-03-08T13:45:51.089Z,68.85
2024-03-08T13:46:54.410Z,68.45
2024-03-08T13:47:57.905Z,68.35
2024-03-08T13:49:10.811Z,68.54